createdAt,value
2018-12-16T00:00:12.930Z,16.10
2018-12-16T00:01:12.837Z,13.50
2018-12-16T00:02:13.029Z,13.50
2018-12-16T00:03:13.513Z,14.30
2018-12-16T00:04:13.323Z,14.50
2018-12-16T00:05:13.890Z,14.80
2018-12-16T00:06:13.639Z,14.00
2018-12-16T00:07:13.955Z,14.60
2018-12-16T00:08:14.276Z,14.00
2018-12-16T00:09:14.883Z,14.30
2018-12-16T00:10:15.284Z,14.40
2018-12-16T00:11:15.172Z,14.10
2018-12-16T00:12:15.431Z,14.60
2018-12-16T00:13:15.749Z,14.70
2018-12-16T00:14:16.014Z,13.90
2018-12-16T00:15:16.694Z,14.30
2018-12-16T00:16:16.865Z,14.20
2018-12-16T00:17:17.228Z,14.90
2018-12-16T00:18:17.679Z,13.80
2018-12-16T00:19:18.314Z,13.70
2018-12-16T00:20:19.081Z,13.80
2018-12-16T00:21:19.355Z,13.60
2018-12-16T00:22:19.296Z,14.60
2018-12-16T00:23:20.386Z,13.90
2018-12-16T00:24:20.086Z,14.10
2018-12-16T00:25:20.402Z,13.90
2018-12-16T00:26:20.617Z,14.10
2018-12-16T00:27:21.009Z,14.60
2018-12-16T00:28:21.447Z,13.80
2018-12-16T00:30:21.663Z,13.50
2018-12-16T00:31:21.769Z,13.60
2018-12-16T00:32:22.273Z,14.00
2018-12-16T00:33:21.469Z,14.50
2018-12-16T00:34:21.970Z,13.90
2018-12-16T00:35:21.927Z,14.50
2018-12-16T00:36:21.696Z,13.80
2018-12-16T00:37:22.166Z,15.20
2018-12-16T00:38:22.087Z,14.30
2018-12-16T00:39:22.382Z,14.90
2018-12-16T00:40:22.396Z,14.20
2018-12-16T00:41:22.650Z,15.10
2018-12-16T00:42:22.676Z,14.10
2018-12-16T00:43:22.712Z,13.50
2018-12-16T00:44:22.825Z,14.50
2018-12-16T00:45:23.190Z,14.10
2018-12-16T00:46:23.567Z,13.70
2018-12-16T00:47:23.679Z,14.40
2018-12-16T00:48:23.805Z,14.50
2018-12-16T00:49:23.956Z,14.80
2018-12-16T00:50:23.936Z,14.00
2018-12-16T00:51:23.930Z,15.20
2018-12-16T00:52:24.414Z,14.70
2018-12-16T00:53:24.839Z,15.10
2018-12-16T00:54:25.229Z,14.60
2018-12-16T00:55:25.537Z,15.40
2018-12-16T00:56:25.950Z,15.10
2018-12-16T00:57:26.423Z,14.40
2018-12-16T00:58:26.620Z,14.50
2018-12-16T00:59:26.855Z,14.50
2018-12-16T01:00:27.170Z,14.40
2018-12-16T01:01:27.788Z,14.90
2018-12-16T01:02:27.725Z,15.70
2018-12-16T01:03:28.044Z,14.60
2018-12-16T01:04:28.373Z,14.90
2018-12-16T01:05:28.714Z,15.40
2018-12-16T01:06:28.995Z,15.20
2018-12-16T01:07:29.394Z,14.20
2018-12-16T01:08:30.155Z,15.50
2018-12-16T01:09:30.182Z,14.90
2018-12-16T01:10:30.494Z,14.20
2018-12-16T01:11:30.763Z,16.30
2018-12-16T01:12:31.186Z,15.80
2018-12-16T01:13:31.489Z,15.20
2018-12-16T01:14:31.973Z,15.10
2018-12-16T01:15:32.672Z,14.70
2018-12-16T01:16:32.624Z,14.80
2018-12-16T01:17:32.980Z,14.30
2018-12-16T01:18:34.158Z,15.00
2018-12-16T01:19:34.226Z,15.70
2018-12-16T01:20:34.173Z,15.30
2018-12-16T01:21:33.898Z,16.30
2018-12-16T01:22:34.390Z,14.70
2018-12-16T01:23:35.221Z,16.60
2018-12-16T01:24:35.528Z,15.70
2018-12-16T01:25:35.831Z,15.90
2018-12-16T01:26:36.219Z,16.80
2018-12-16T01:27:36.267Z,16.00
2018-12-16T01:28:36.788Z,16.10
2018-12-16T01:29:36.888Z,16.50
2018-12-16T01:30:36.900Z,15.20
2018-12-16T01:31:37.287Z,16.70
2018-12-16T01:32:37.158Z,15.90
2018-12-16T01:33:37.378Z,14.80
2018-12-16T01:34:37.609Z,14.60
2018-12-16T01:35:37.712Z,15.00
2018-12-16T01:36:37.892Z,14.60
2018-12-16T01:37:38.023Z,15.80
2018-12-16T01:38:38.042Z,16.00
2018-12-16T01:39:38.144Z,15.50
2018-12-16T01:40:38.383Z,16.20
2018-12-16T01:41:38.668Z,16.90
2018-12-16T01:42:38.824Z,17.30
2018-12-16T01:43:38.946Z,16.20
2018-12-16T01:44:39.051Z,16.40
2018-12-16T01:45:39.235Z,15.50
2018-12-16T01:46:39.163Z,16.90
2018-12-16T01:47:39.490Z,16.90
2018-12-16T01:48:39.810Z,17.20
2018-12-16T01:50:40.170Z,16.60
2018-12-16T01:51:40.441Z,15.70
2018-12-16T01:52:40.881Z,16.50
2018-12-16T01:53:41.509Z,16.10
2018-12-16T01:54:41.320Z,17.30
2018-12-16T01:55:41.851Z,15.60
2018-12-16T01:56:41.605Z,16.40
2018-12-16T01:57:41.833Z,15.60
2018-12-16T01:58:42.222Z,15.90
2018-12-16T01:59:42.610Z,16.50
2018-12-16T02:00:42.863Z,16.30
2018-12-16T02:01:43.178Z,15.90
2018-12-16T02:02:43.276Z,15.30
2018-12-16T02:03:43.599Z,16.70
2018-12-16T02:04:43.962Z,16.20
2018-12-16T02:05:44.493Z,14.40
2018-12-16T02:06:44.361Z,16.20
2018-12-16T02:07:44.756Z,15.80
2018-12-16T02:08:45.101Z,16.40
2018-12-16T02:09:45.508Z,15.10
2018-12-16T02:10:46.044Z,15.60
2018-12-16T02:11:45.789Z,15.80
2018-12-16T02:12:46.213Z,15.10
2018-12-16T02:13:46.638Z,15.40
2018-12-16T02:14:46.979Z,16.30
2018-12-16T02:15:47.446Z,14.70
2018-12-16T02:16:47.819Z,16.10
2018-12-16T02:17:48.467Z,15.20
2018-12-16T02:18:48.885Z,16.20
2018-12-16T02:19:49.606Z,16.50
2018-12-16T02:20:50.025Z,15.30
2018-12-16T02:21:50.351Z,16.60
2018-12-16T02:22:56.660Z,16.10
2018-12-16T02:23:51.270Z,15.90
2018-12-16T02:24:51.482Z,16.30
2018-12-16T02:25:51.900Z,15.50
2018-12-16T02:26:52.011Z,16.30
2018-12-16T02:27:51.905Z,14.80
2018-12-16T02:28:52.085Z,15.20
2018-12-16T02:29:52.380Z,15.90
2018-12-16T02:30:52.482Z,15.20
2018-12-16T02:31:52.584Z,16.00
2018-12-16T02:32:52.763Z,15.90
2018-12-16T02:33:52.820Z,16.30
2018-12-16T02:34:52.870Z,14.80
2018-12-16T02:35:53.048Z,15.80
2018-12-16T02:36:53.210Z,16.00
2018-12-16T02:37:53.429Z,15.50
2018-12-16T02:38:53.647Z,15.00
2018-12-16T02:39:53.779Z,15.40
2018-12-16T02:40:53.870Z,16.60
2018-12-16T02:41:54.009Z,15.50
2018-12-16T02:42:54.063Z,15.80
2018-12-16T02:43:54.099Z,14.50
2018-12-16T02:44:54.037Z,15.90
2018-12-16T02:45:54.861Z,15.70
2018-12-16T02:46:54.586Z,16.40
2018-12-16T02:47:55.011Z,15.60
2018-12-16T02:48:55.239Z,15.60
2018-12-16T02:49:55.687Z,16.10
2018-12-16T02:50:56.085Z,15.30
2018-12-16T02:52:56.410Z,16.40
2018-12-16T02:53:56.871Z,15.90
2018-12-16T02:54:57.356Z,15.60
2018-12-16T02:55:57.803Z,16.40
2018-12-16T02:56:58.300Z,15.30
2018-12-16T02:57:58.853Z,15.90
2018-12-16T02:58:58.802Z,15.30
2018-12-16T03:00:59.195Z,15.60
2018-12-16T03:01:59.537Z,15.40
2018-12-16T03:02:59.898Z,15.50
2018-12-16T03:04:00.150Z,15.50
2018-12-16T03:05:00.560Z,15.50
2018-12-16T03:06:01.320Z,15.80
2018-12-16T03:07:01.979Z,16.40
2018-12-16T03:08:01.906Z,16.00
2018-12-16T03:09:02.071Z,15.60
2018-12-16T03:10:02.503Z,15.40
2018-12-16T03:11:02.888Z,15.50
2018-12-16T03:12:03.169Z,16.40
2018-12-16T03:13:03.770Z,17.60
2018-12-16T03:14:03.992Z,15.60
2018-12-16T03:15:04.205Z,16.60
2018-12-16T03:16:04.208Z,16.50
2018-12-16T03:17:04.393Z,16.40
2018-12-16T03:18:04.630Z,15.80
2018-12-16T03:19:04.745Z,16.20
2018-12-16T03:20:04.849Z,16.70
2018-12-16T03:21:05.050Z,17.00
2018-12-16T03:22:05.484Z,16.70
2018-12-16T03:23:11.983Z,16.60
2018-12-16T03:24:06.002Z,16.80
2018-12-16T03:25:05.880Z,15.10
2018-12-16T03:26:06.114Z,15.80
2018-12-16T03:27:06.030Z,17.30
2018-12-16T03:28:06.743Z,17.30
2018-12-16T03:29:06.808Z,16.90
2018-12-16T03:30:06.956Z,17.00
2018-12-16T03:31:07.051Z,16.40
2018-12-16T03:32:06.975Z,16.20
2018-12-16T03:33:07.330Z,16.60
2018-12-16T03:34:07.424Z,16.30
2018-12-16T03:35:07.528Z,16.20
2018-12-16T03:36:07.381Z,16.50
2018-12-16T03:37:07.898Z,17.00
2018-12-16T03:38:08.026Z,16.90
2018-12-16T03:39:07.755Z,17.60
2018-12-16T03:40:08.107Z,16.30
2018-12-16T03:41:08.656Z,17.00
2018-12-16T03:42:08.588Z,16.20
2018-12-16T03:43:09.131Z,16.40
2018-12-16T03:44:09.315Z,16.80
2018-12-16T03:45:09.201Z,17.10
2018-12-16T03:46:09.629Z,17.30
2018-12-16T03:47:10.201Z,17.40
2018-12-16T03:48:10.178Z,16.80
2018-12-16T03:49:10.387Z,16.80
2018-12-16T03:50:10.848Z,16.70
2018-12-16T03:51:11.540Z,16.50
2018-12-16T03:52:11.518Z,16.90
2018-12-16T03:53:19.461Z,15.70
2018-12-16T03:54:12.029Z,15.70
2018-12-16T03:55:12.629Z,17.30
2018-12-16T03:56:12.428Z,17.00
2018-12-16T03:57:12.789Z,17.00
2018-12-16T03:58:13.185Z,17.40
2018-12-16T03:59:13.529Z,16.80
2018-12-16T04:00:13.778Z,17.40
2018-12-16T04:01:14.058Z,17.60
2018-12-16T04:02:14.292Z,16.00
2018-12-16T04:03:14.625Z,17.40
2018-12-16T04:04:14.854Z,17.50
2018-12-16T04:05:15.762Z,17.60
2018-12-16T04:06:15.715Z,17.00
2018-12-16T04:07:16.173Z,17.50
2018-12-16T04:08:16.548Z,16.80
2018-12-16T04:09:16.856Z,17.20
2018-12-16T04:10:17.628Z,17.60
2018-12-16T04:11:17.389Z,17.30
2018-12-16T04:12:17.846Z,17.30
2018-12-16T04:13:18.815Z,18.90
2018-12-16T04:14:19.028Z,17.30
2018-12-16T04:15:20.070Z,18.30
2018-12-16T04:16:19.859Z,18.10
2018-12-16T04:17:20.182Z,16.20
2018-12-16T04:18:20.583Z,17.60
2018-12-16T04:19:20.962Z,17.70
2018-12-16T04:20:21.099Z,17.30
2018-12-16T04:21:21.221Z,16.70
2018-12-16T04:22:21.444Z,15.90
2018-12-16T04:23:27.388Z,16.40
2018-12-16T04:24:21.285Z,16.70
2018-12-16T04:25:21.885Z,16.90
2018-12-16T04:26:22.072Z,17.90
2018-12-16T04:27:22.332Z,16.60
2018-12-16T04:28:22.418Z,18.20
2018-12-16T04:29:22.563Z,18.30
2018-12-16T04:30:22.585Z,17.20
2018-12-16T04:31:22.605Z,18.00
2018-12-16T04:32:22.769Z,18.50
2018-12-16T04:33:22.869Z,18.60
2018-12-16T04:34:23.006Z,17.10
2018-12-16T04:35:22.865Z,17.90
2018-12-16T04:36:23.558Z,17.80
2018-12-16T04:37:23.666Z,17.30
2018-12-16T04:38:23.756Z,16.50
2018-12-16T04:39:23.836Z,17.10
2018-12-16T04:40:23.835Z,18.40
2018-12-16T04:41:24.659Z,17.10
2018-12-16T04:42:24.479Z,16.90
2018-12-16T04:43:24.781Z,16.70
2018-12-16T04:44:25.171Z,17.70
2018-12-16T04:45:25.530Z,18.30
2018-12-16T04:46:25.809Z,16.30
2018-12-16T04:47:26.216Z,18.20
2018-12-16T04:48:26.592Z,17.60
2018-12-16T04:49:26.864Z,16.80
2018-12-16T04:50:27.345Z,17.30
2018-12-16T04:51:27.885Z,17.20
2018-12-16T04:52:27.952Z,17.00
2018-12-16T04:53:35.110Z,17.10
2018-12-16T04:54:28.269Z,16.30
2018-12-16T04:55:28.515Z,17.60
2018-12-16T04:56:28.852Z,17.00
2018-12-16T04:57:29.271Z,17.30
2018-12-16T04:58:29.570Z,17.70
2018-12-16T04:59:29.881Z,16.90
2018-12-16T05:00:30.195Z,18.60
2018-12-16T05:01:30.513Z,18.10
2018-12-16T05:02:30.749Z,18.60
2018-12-16T05:03:31.185Z,17.30
2018-12-16T05:04:31.458Z,18.30
2018-12-16T05:05:31.777Z,18.80
2018-12-16T05:06:32.131Z,18.70
2018-12-16T05:08:32.629Z,18.70
2018-12-16T05:09:33.215Z,19.70
2018-12-16T05:10:33.625Z,19.80
2018-12-16T05:11:34.661Z,19.80
2018-12-16T05:12:34.057Z,20.40
2018-12-16T05:13:34.669Z,19.30
2018-12-16T05:14:34.784Z,20.30
2018-12-16T05:15:35.293Z,20.50
2018-12-16T05:16:35.197Z,20.30
2018-12-16T05:17:35.767Z,20.40
2018-12-16T05:18:35.620Z,21.00
2018-12-16T05:19:35.932Z,20.90
2018-12-16T05:20:36.247Z,21.60
2018-12-16T05:21:36.561Z,21.10
2018-12-16T05:22:36.884Z,21.80
2018-12-16T05:23:41.825Z,22.90
2018-12-16T05:24:37.152Z,23.30
2018-12-16T05:25:37.340Z,22.00
2018-12-16T05:26:37.499Z,22.30
2018-12-16T05:27:37.658Z,23.50
2018-12-16T05:28:37.710Z,22.60
2018-12-16T05:29:37.760Z,21.90
2018-12-16T05:30:37.909Z,21.30
2018-12-16T05:31:37.950Z,22.50
2018-12-16T05:32:38.103Z,23.20
2018-12-16T05:33:38.134Z,24.10
2018-12-16T05:34:38.294Z,23.50
2018-12-16T05:35:38.385Z,24.10
2018-12-16T05:36:38.569Z,23.90
2018-12-16T05:37:38.775Z,24.70
2018-12-16T05:38:39.100Z,23.40
2018-12-16T05:39:39.184Z,26.80
2018-12-16T05:40:39.151Z,24.70
2018-12-16T05:41:39.527Z,25.10
2018-12-16T05:42:39.788Z,26.40
2018-12-16T05:43:40.325Z,27.40
2018-12-16T05:44:40.132Z,26.30
2018-12-16T05:45:40.586Z,28.90
2018-12-16T05:46:40.949Z,26.70
2018-12-16T05:47:41.158Z,27.50
2018-12-16T05:48:41.482Z,27.80
2018-12-16T05:49:41.907Z,25.80
2018-12-16T05:50:42.243Z,25.50
2018-12-16T05:51:42.514Z,28.40
2018-12-16T05:52:42.865Z,27.80
2018-12-16T05:53:48.511Z,28.00
2018-12-16T05:54:43.432Z,26.90
2018-12-16T05:55:43.936Z,26.40
2018-12-16T05:56:43.781Z,25.90
2018-12-16T05:57:44.572Z,26.60
2018-12-16T05:58:44.493Z,28.50
2018-12-16T05:59:45.041Z,27.60
2018-12-16T06:00:45.049Z,26.60
2018-12-16T06:01:44.826Z,27.10
2018-12-16T06:02:45.237Z,26.70
2018-12-16T06:03:45.584Z,27.00
2018-12-16T06:04:46.097Z,28.40
2018-12-16T06:05:46.527Z,26.90
2018-12-16T06:06:46.812Z,27.20
2018-12-16T06:07:47.338Z,27.30
2018-12-16T06:08:47.148Z,26.40
2018-12-16T06:09:47.564Z,27.80
2018-12-16T06:10:47.767Z,27.60
2018-12-16T06:11:48.672Z,26.60
2018-12-16T06:12:49.390Z,28.40
2018-12-16T06:13:49.721Z,27.00
2018-12-16T06:14:49.715Z,27.60
2018-12-16T06:15:50.738Z,26.30
2018-12-16T06:16:50.343Z,25.90
2018-12-16T06:17:50.749Z,26.50
2018-12-16T06:18:51.176Z,27.20
2018-12-16T06:19:51.550Z,26.50
2018-12-16T06:20:51.592Z,25.60
2018-12-16T06:21:51.808Z,25.60
2018-12-16T06:22:51.808Z,26.50
2018-12-16T06:23:55.485Z,26.60
2018-12-16T06:24:52.487Z,26.90
2018-12-16T06:25:52.617Z,27.40
2018-12-16T06:26:52.633Z,28.10
2018-12-16T06:27:52.764Z,27.00
2018-12-16T06:28:52.808Z,26.80
2018-12-16T06:29:52.855Z,26.60
2018-12-16T06:30:52.919Z,26.40
2018-12-16T06:31:52.952Z,26.80
2018-12-16T06:32:53.100Z,26.70
2018-12-16T06:33:53.125Z,28.90
2018-12-16T06:34:53.309Z,27.50
2018-12-16T06:35:53.407Z,26.50
2018-12-16T06:36:53.132Z,25.80
2018-12-16T06:37:53.812Z,26.30
2018-12-16T06:38:53.785Z,26.70
2018-12-16T06:39:54.332Z,27.40
2018-12-16T06:40:54.256Z,26.60
2018-12-16T06:41:55.352Z,27.30
2018-12-16T06:42:55.042Z,26.90
2018-12-16T06:43:55.375Z,27.70
2018-12-16T06:44:55.715Z,27.20
2018-12-16T06:45:56.158Z,28.50
2018-12-16T06:46:56.514Z,27.70
2018-12-16T06:47:57.112Z,27.40
2018-12-16T06:48:56.926Z,28.80
2018-12-16T06:49:57.235Z,28.10
2018-12-16T06:50:57.639Z,26.60
2018-12-16T06:51:57.973Z,27.70
2018-12-16T06:54:02.467Z,27.30
2018-12-16T06:54:58.493Z,27.30
2018-12-16T06:55:58.853Z,29.80
2018-12-16T06:56:59.125Z,28.30
2018-12-16T06:57:59.443Z,28.50
2018-12-16T06:58:59.780Z,28.40
2018-12-16T07:00:00.056Z,29.80
2018-12-16T07:01:00.648Z,29.00
2018-12-16T07:02:00.398Z,28.50
2018-12-16T07:03:03.122Z,28.80
2018-12-16T07:04:01.091Z,29.10
2018-12-16T07:05:01.359Z,29.50
2018-12-16T07:06:01.600Z,28.90
2018-12-16T07:07:02.112Z,29.20
2018-12-16T07:08:01.833Z,29.20
2018-12-16T07:09:02.320Z,27.70
2018-12-16T07:10:02.645Z,30.10
2018-12-16T07:11:02.917Z,28.90
2018-12-16T07:12:03.190Z,29.00
2018-12-16T07:13:03.239Z,29.40
2018-12-16T07:14:03.426Z,29.70
2018-12-16T07:15:04.019Z,29.80
2018-12-16T07:16:04.135Z,30.90
2018-12-16T07:17:04.047Z,29.40
2018-12-16T07:18:04.662Z,30.00
2018-12-16T07:19:04.675Z,31.20
2018-12-16T07:20:04.885Z,30.70
2018-12-16T07:21:05.022Z,30.80
2018-12-16T07:22:05.734Z,31.10
2018-12-16T07:23:06.125Z,29.60
2018-12-16T07:24:09.394Z,30.60
2018-12-16T07:25:06.621Z,29.90
2018-12-16T07:26:07.095Z,29.30
2018-12-16T07:27:07.083Z,29.70
2018-12-16T07:28:07.154Z,28.60
2018-12-16T07:29:07.140Z,28.10
2018-12-16T07:30:07.577Z,28.70
2018-12-16T07:31:08.467Z,28.10
2018-12-16T07:33:07.962Z,28.30
2018-12-16T07:34:08.238Z,28.50
2018-12-16T07:35:08.504Z,29.20
2018-12-16T07:36:09.131Z,29.50
2018-12-16T07:37:09.793Z,30.30
2018-12-16T07:38:09.368Z,30.60
2018-12-16T07:39:09.449Z,28.80
2018-12-16T07:40:09.742Z,28.90
2018-12-16T07:41:10.384Z,30.40
2018-12-16T07:42:10.259Z,30.00
2018-12-16T07:43:10.583Z,28.40
2018-12-16T07:44:10.958Z,28.30
2018-12-16T07:45:11.326Z,30.20
2018-12-16T07:46:11.538Z,30.20
2018-12-16T07:47:12.080Z,29.10
2018-12-16T07:48:11.842Z,29.20
2018-12-16T07:49:12.256Z,29.70
2018-12-16T07:50:12.653Z,28.60
2018-12-16T07:51:12.902Z,29.10
2018-12-16T07:52:13.040Z,29.00
2018-12-16T07:53:13.322Z,29.30
2018-12-16T07:54:16.127Z,28.60
2018-12-16T07:55:13.824Z,29.60
2018-12-16T07:56:14.138Z,29.90
2018-12-16T07:57:14.468Z,28.20
2018-12-16T07:58:14.883Z,29.50
2018-12-16T07:59:15.113Z,30.20
2018-12-16T08:00:15.994Z,28.90
2018-12-16T08:01:15.811Z,27.60
2018-12-16T08:02:16.132Z,28.00
2018-12-16T08:03:16.678Z,28.70
2018-12-16T08:04:16.402Z,29.40
2018-12-16T08:05:16.668Z,28.80
2018-12-16T08:06:16.928Z,28.30
2018-12-16T08:07:17.214Z,27.90
2018-12-16T08:08:17.491Z,29.40
2018-12-16T08:09:17.996Z,26.60
2018-12-16T08:10:17.757Z,28.90
2018-12-16T08:11:18.828Z,27.10
2018-12-16T08:12:18.632Z,28.10
2018-12-16T08:13:19.260Z,26.30
2018-12-16T08:14:19.294Z,28.20
2018-12-16T08:15:19.685Z,29.20
2018-12-16T08:16:19.989Z,28.50
2018-12-16T08:17:20.509Z,28.90
2018-12-16T08:18:21.244Z,28.40
2018-12-16T08:19:20.831Z,29.40
2018-12-16T08:20:20.845Z,29.60
2018-12-16T08:21:20.840Z,29.40
2018-12-16T08:22:21.092Z,29.70
2018-12-16T08:23:21.364Z,30.40
2018-12-16T08:24:23.317Z,29.90
2018-12-16T08:25:21.494Z,28.00
2018-12-16T08:26:21.691Z,28.00
2018-12-16T08:27:21.801Z,28.90
2018-12-16T08:28:22.000Z,29.40
2018-12-16T08:29:21.918Z,29.10
2018-12-16T08:30:22.342Z,29.60
2018-12-16T08:31:22.618Z,29.30
2018-12-16T08:32:22.652Z,28.90
2018-12-16T08:33:22.901Z,29.90
2018-12-16T08:34:23.041Z,29.50
2018-12-16T08:35:23.193Z,29.50
2018-12-16T08:36:23.394Z,29.20
2018-12-16T08:37:23.485Z,29.00
2018-12-16T08:38:23.459Z,29.90
2018-12-16T08:39:24.239Z,30.10
2018-12-16T08:40:24.059Z,29.40
2018-12-16T08:41:24.247Z,29.70
2018-12-16T08:42:24.479Z,27.50
2018-12-16T08:43:25.067Z,30.00
2018-12-16T08:44:25.105Z,29.50
2018-12-16T08:45:24.927Z,28.80
2018-12-16T08:46:25.393Z,29.50
2018-12-16T08:47:32.918Z,29.40
2018-12-16T08:48:26.462Z,27.70
2018-12-16T08:49:26.760Z,29.10
2018-12-16T08:50:26.627Z,30.30
2018-12-16T08:51:27.038Z,30.70
2018-12-16T08:52:27.245Z,29.90
2018-12-16T08:53:27.537Z,28.00
2018-12-16T08:54:30.175Z,30.10
2018-12-16T08:55:28.053Z,27.20
2018-12-16T08:56:28.389Z,29.80
2018-12-16T08:57:29.035Z,29.40
2018-12-16T08:58:28.972Z,28.20
2018-12-16T08:59:29.503Z,27.80
2018-12-16T09:00:29.323Z,27.50
2018-12-16T09:01:29.691Z,28.50
2018-12-16T09:02:29.998Z,26.20
2018-12-16T09:03:30.361Z,27.90
2018-12-16T09:04:30.600Z,28.60
2018-12-16T09:05:30.879Z,29.20
2018-12-16T09:06:31.195Z,29.40
2018-12-16T09:07:37.256Z,28.10
2018-12-16T09:08:31.720Z,29.50
2018-12-16T09:09:32.306Z,29.30
2018-12-16T09:10:34.337Z,29.60
2018-12-16T09:11:32.695Z,28.60
2018-12-16T09:12:32.631Z,29.70
2018-12-16T09:13:32.937Z,28.30
2018-12-16T09:14:34.199Z,29.60
2018-12-16T09:15:34.308Z,30.40
2018-12-16T09:16:34.615Z,29.90
2018-12-16T09:17:34.527Z,30.50
2018-12-16T09:18:35.344Z,28.20
2018-12-16T09:19:35.592Z,27.50
2018-12-16T09:20:35.985Z,27.70
2018-12-16T09:21:36.312Z,28.40
2018-12-16T09:22:36.395Z,28.80
2018-12-16T09:23:35.977Z,27.50
2018-12-16T09:24:37.422Z,29.50
2018-12-16T09:25:37.748Z,27.90
2018-12-16T09:26:36.315Z,28.80
2018-12-16T09:27:37.102Z,27.80
2018-12-16T09:28:37.438Z,28.60
2018-12-16T09:29:37.480Z,28.90
2018-12-16T09:30:37.694Z,27.70
2018-12-16T09:31:37.836Z,27.90
2018-12-16T09:32:37.880Z,26.10
2018-12-16T09:33:37.914Z,28.20
2018-12-16T09:34:38.113Z,28.00
2018-12-16T09:35:38.227Z,27.30
2018-12-16T09:36:38.326Z,27.40
2018-12-16T09:37:38.428Z,26.80
2018-12-16T09:38:38.515Z,28.50
2018-12-16T09:39:38.578Z,28.60
2018-12-16T09:40:38.724Z,28.30
2018-12-16T09:41:38.812Z,29.00
2018-12-16T09:42:38.915Z,28.70
2018-12-16T09:43:38.922Z,28.00
2018-12-16T09:44:39.408Z,28.40
2018-12-16T09:45:39.754Z,28.60
2018-12-16T09:46:39.976Z,26.60
2018-12-16T09:47:40.457Z,29.80
2018-12-16T09:48:40.487Z,28.20
2018-12-16T09:49:40.572Z,28.10
2018-12-16T09:50:40.412Z,28.20
2018-12-16T09:51:40.707Z,27.80
2018-12-16T09:52:41.021Z,28.50
2018-12-16T09:53:41.366Z,27.90
2018-12-16T09:54:44.351Z,28.70
2018-12-16T09:55:42.112Z,28.40
2018-12-16T09:56:42.532Z,29.50
2018-12-16T09:57:43.041Z,29.70
2018-12-16T09:58:42.794Z,25.80
2018-12-16T09:59:43.315Z,28.40
2018-12-16T10:00:43.127Z,29.00
2018-12-16T10:01:43.471Z,26.60
2018-12-16T10:02:43.940Z,27.40
2018-12-16T10:03:44.399Z,28.00
2018-12-16T10:05:44.694Z,27.90
2018-12-16T10:06:45.185Z,27.60
2018-12-16T10:07:45.535Z,30.20
2018-12-16T10:08:45.968Z,27.70
2018-12-16T10:09:46.596Z,28.60
2018-12-16T10:10:46.531Z,27.40
2018-12-16T10:11:46.774Z,26.30
2018-12-16T10:12:47.086Z,28.00
2018-12-16T10:13:47.408Z,26.80
2018-12-16T10:14:47.713Z,26.50
2018-12-16T10:15:48.421Z,26.70
2018-12-16T10:16:48.921Z,27.80
2018-12-16T10:17:49.764Z,26.80
2018-12-16T10:18:49.868Z,27.30
2018-12-16T10:19:49.734Z,28.60
2018-12-16T10:20:50.606Z,29.00
2018-12-16T10:21:50.913Z,28.10
2018-12-16T10:22:51.123Z,28.40
2018-12-16T10:23:51.398Z,29.10
2018-12-16T10:24:51.743Z,27.70
2018-12-16T10:25:51.359Z,28.90
2018-12-16T10:26:51.855Z,26.50
2018-12-16T10:27:52.229Z,27.00
2018-12-16T10:28:52.309Z,28.20
2018-12-16T10:29:52.427Z,27.00
2018-12-16T10:30:52.451Z,28.60
2018-12-16T10:31:52.576Z,27.90
2018-12-16T10:32:52.676Z,29.60
2018-12-16T10:33:52.703Z,28.40
2018-12-16T10:34:52.725Z,28.10
2018-12-16T10:35:52.749Z,29.10
2018-12-16T10:36:52.847Z,27.50
2018-12-16T10:37:52.882Z,27.80
2018-12-16T10:38:52.902Z,28.30
2018-12-16T10:39:52.930Z,28.00
2018-12-16T10:40:53.015Z,27.30
2018-12-16T10:41:53.120Z,29.10
2018-12-16T10:42:53.402Z,28.10
2018-12-16T10:43:53.482Z,28.60
2018-12-16T10:44:53.730Z,29.00
2018-12-16T10:45:53.960Z,28.40
2018-12-16T10:46:53.941Z,27.30
2018-12-16T10:47:54.024Z,27.30
2018-12-16T10:48:54.069Z,27.50
2018-12-16T10:49:55.140Z,27.40
2018-12-16T10:50:54.818Z,27.00
2018-12-16T10:51:54.975Z,27.30
2018-12-16T10:52:55.116Z,27.30
2018-12-16T10:53:55.246Z,26.50
2018-12-16T10:54:58.500Z,27.50
2018-12-16T10:55:55.181Z,27.50
2018-12-16T10:56:55.343Z,26.80
2018-12-16T10:57:55.100Z,26.50
2018-12-16T10:58:55.449Z,28.00
2018-12-16T10:59:55.805Z,26.90
2018-12-16T11:00:56.364Z,28.80
2018-12-16T11:01:56.937Z,26.70
2018-12-16T11:02:56.797Z,26.20
2018-12-16T11:03:57.284Z,25.80
2018-12-16T11:04:57.624Z,26.00
2018-12-16T11:05:57.948Z,27.00
2018-12-16T11:06:58.254Z,27.30
2018-12-16T11:07:58.496Z,26.90
2018-12-16T11:08:59.084Z,26.60
2018-12-16T11:09:58.923Z,26.50
2018-12-16T11:10:59.287Z,26.60
2018-12-16T11:11:59.656Z,27.00
2018-12-16T11:13:00.097Z,26.90
2018-12-16T11:14:00.454Z,26.60
2018-12-16T11:15:00.830Z,26.90
2018-12-16T11:16:01.567Z,27.40
2018-12-16T11:17:01.763Z,25.70
2018-12-16T11:18:02.166Z,26.30
2018-12-16T11:19:02.271Z,29.10
2018-12-16T11:20:02.707Z,26.90
2018-12-16T11:21:02.931Z,27.80
2018-12-16T11:22:02.926Z,28.30
2018-12-16T11:23:04.151Z,27.30
2018-12-16T11:24:04.371Z,27.80
2018-12-16T11:25:05.865Z,25.60
2018-12-16T11:26:04.927Z,28.20
2018-12-16T11:27:05.109Z,27.60
2018-12-16T11:28:05.319Z,26.10
2018-12-16T11:29:05.431Z,27.30
2018-12-16T11:30:05.364Z,28.40
2018-12-16T11:31:05.754Z,27.40
2018-12-16T11:32:05.558Z,27.30
2018-12-16T11:33:05.636Z,27.90
2018-12-16T11:34:06.382Z,26.80
2018-12-16T11:35:06.681Z,26.00
2018-12-16T11:36:06.792Z,27.70
2018-12-16T11:37:07.068Z,27.90
2018-12-16T11:38:07.216Z,28.20
2018-12-16T11:39:07.328Z,26.70
2018-12-16T11:40:07.546Z,26.80
2018-12-16T11:41:07.332Z,26.80
2018-12-16T11:42:07.604Z,27.30
2018-12-16T11:43:07.677Z,27.70
2018-12-16T11:44:07.726Z,26.60
2018-12-16T11:45:07.842Z,28.00
2018-12-16T11:46:07.976Z,28.50
2018-12-16T11:47:07.840Z,28.60
2018-12-16T11:48:08.122Z,28.20
2018-12-16T11:49:08.482Z,27.90
2018-12-16T11:50:09.353Z,29.20
2018-12-16T11:51:09.656Z,28.30
2018-12-16T11:52:09.594Z,29.60
2018-12-16T11:53:10.051Z,28.30
2018-12-16T11:54:10.637Z,29.30
2018-12-16T11:55:12.990Z,28.70
2018-12-16T11:56:10.650Z,30.00
2018-12-16T11:57:10.984Z,30.80
2018-12-16T11:58:11.320Z,29.20
2018-12-16T11:59:11.698Z,31.50
2018-12-16T12:00:12.379Z,28.00
2018-12-16T12:01:12.223Z,28.50
2018-12-16T12:02:12.500Z,26.40
2018-12-16T12:03:12.753Z,28.90
2018-12-16T12:04:13.251Z,27.60
2018-12-16T12:05:14.051Z,28.20
2018-12-16T12:06:13.894Z,29.50
2018-12-16T12:07:14.455Z,28.70
2018-12-16T12:08:14.386Z,30.30
2018-12-16T12:09:14.743Z,28.10
2018-12-16T12:10:15.514Z,27.70
2018-12-16T12:11:15.255Z,28.50
2018-12-16T12:12:15.579Z,28.70
2018-12-16T12:13:16.148Z,28.00
2018-12-16T12:14:16.028Z,29.20
2018-12-16T12:15:16.401Z,28.60
2018-12-16T12:16:16.727Z,28.20
2018-12-16T12:17:17.107Z,27.40
2018-12-16T12:18:17.595Z,28.40
2018-12-16T12:19:17.896Z,27.60
2018-12-16T12:20:19.281Z,28.60
2018-12-16T12:21:19.590Z,28.00
2018-12-16T12:22:20.019Z,28.00
2018-12-16T12:23:20.527Z,28.60
2018-12-16T12:24:20.786Z,28.80
2018-12-16T12:25:21.065Z,28.10
2018-12-16T12:26:21.264Z,27.10
2018-12-16T12:27:21.893Z,28.90
2018-12-16T12:28:22.005Z,28.50
2018-12-16T12:29:21.364Z,27.50
2018-12-16T12:30:22.195Z,28.90
2018-12-16T12:31:22.470Z,28.70
2018-12-16T12:32:22.541Z,29.40
2018-12-16T12:33:22.745Z,29.50
2018-12-16T12:34:22.911Z,29.60
2018-12-16T12:35:23.017Z,29.40
2018-12-16T12:36:23.067Z,28.40
2018-12-16T12:37:23.291Z,28.40
2018-12-16T12:38:23.386Z,29.40
2018-12-16T12:39:23.470Z,27.40
2018-12-16T12:40:23.573Z,29.80
2018-12-16T12:41:23.735Z,30.20
2018-12-16T12:42:23.878Z,29.40
2018-12-16T12:43:25.050Z,29.30
2018-12-16T12:44:25.201Z,30.20
2018-12-16T12:45:24.594Z,27.70
2018-12-16T12:46:24.932Z,29.40
2018-12-16T12:47:25.373Z,28.10
2018-12-16T12:48:25.851Z,30.60
2018-12-16T12:49:26.162Z,31.40
2018-12-16T12:50:26.501Z,30.90
2018-12-16T12:51:26.773Z,30.70
2018-12-16T12:53:27.152Z,30.50
2018-12-16T12:54:27.420Z,29.30
2018-12-16T12:55:27.677Z,30.70
2018-12-16T12:56:27.940Z,31.20
2018-12-16T12:57:28.291Z,30.60
2018-12-16T12:58:28.570Z,29.70
2018-12-16T12:59:28.912Z,31.40
2018-12-16T13:00:29.308Z,29.90
2018-12-16T13:01:29.671Z,30.60
2018-12-16T13:02:30.198Z,29.70
2018-12-16T13:03:30.072Z,31.60
2018-12-16T13:04:31.103Z,28.50